Terminal Aerodrome Forecast
Issued by NWS Pittsburgh, PA

Current Version | Previous Version | Text Only | Print | Product List | Glossary Off
Versions: 1 2 3 4 5 6 7 8 9 10 11 12 13 14 15 16 17 18 19 20 21 22 23 24 25 26 27 28 29 30

497
FTUS41 KPBZ 172101 AAB
TAFPIT
TAF AMD
KPIT 172101Z 1721/1824 21007KT P6SM FEW029 SCT050
     FM172200 21010KT P6SM VCTS BKN035CB
      TEMPO 1722/1724 5SM -TSRA BKN035CB
     FM180000 22012G22KT 4SM TSRA OVC035CB
     FM180200 23008G15KT P6SM SCT035
     FM181000 22006KT 5SM BR VCSH BKN020
     FM181200 22008KT P6SM BKN015
     FM181700 23011G19KT P6SM BKN040=

USA.gov is the U.S. government's official web portal to all federal, state and local government web resources and services.